sensor_id;sensor_type;location;lat;lon;timestamp;pressure;altitude;pressure_sealevel;temperature;humidity
41596;BME280;27283;52.504;13.358;2023-02-01T00:01:13;100698.63;;;5.13;77.94
41596;BME280;27283;52.504;13.358;2023-02-01T00:03:46;100699.69;;;5.01;78.67
41596;BME280;27283;52.504;13.358;2023-02-01T00:06:18;100686.59;;;5.19;77.36
41596;BME280;27283;52.504;13.358;2023-02-01T00:08:52;100696.63;;;5.05;78.13
41596;BME280;27283;52.504;13.358;2023-02-01T00:11:25;100706.53;;;5.45;76.42
41596;BME280;27283;52.504;13.358;2023-02-01T00:13:58;100692.06;;;5.48;75.43
41596;BME280;27283;52.504;13.358;2023-02-01T00:16:33;100704.66;;;5.36;76.73
41596;BME280;27283;52.504;13.358;2023-02-01T00:19:09;100696.69;;;5.15;75.09
41596;BME280;27283;52.504;13.358;2023-02-01T00:21:42;100699.94;;;4.97;75.33
41596;BME280;27283;52.504;13.358;2023-02-01T00:24:33;100703.44;;;5.50;74.81
41596;BME280;27283;52.504;13.358;2023-02-01T00:27:05;100704.53;;;5.38;74.84
41596;BME280;27283;52.504;13.358;2023-02-01T00:29:37;100699.03;;;4.87;74.46
41596;BME280;27283;52.504;13.358;2023-02-01T00:32:13;100689.16;;;4.99;74.09
41596;BME280;27283;52.504;13.358;2023-02-01T00:34:45;100693.13;;;4.84;75.12
41596;BME280;27283;52.504;13.358;2023-02-01T00:37:20;100692.59;;;5.42;73.49
41596;BME280;27283;52.504;13.358;2023-02-01T00:39:53;100689.72;;;5.03;74.80
41596;BME280;27283;52.504;13.358;2023-02-01T00:42:25;100700.22;;;5.25;74.01
41596;BME280;27283;52.504;13.358;2023-02-01T00:44:57;100692.28;;;5.04;74.79
41596;BME280;27283;52.504;13.358;2023-02-01T00:47:37;100701.91;;;4.95;74.96
41596;BME280;27283;52.504;13.358;2023-02-01T00:50:10;100711.25;;;4.90;74.78
41596;BME280;27283;52.504;13.358;2023-02-01T00:52:42;100706.72;;;5.02;75.34
41596;BME280;27283;52.504;13.358;2023-02-01T00:55:14;100712.31;;;4.99;75.64
41596;BME280;27283;52.504;13.358;2023-02-01T00:57:47;100711.56;;;5.18;75.26
41596;BME280;27283;52.504;13.358;2023-02-01T01:00:19;100726.97;;;4.72;77.52
41596;BME280;27283;52.504;13.358;2023-02-01T01:02:55;100721.13;;;4.99;76.37
41596;BME280;27283;52.504;13.358;2023-02-01T01:05:27;100725.53;;;4.68;77.60
41596;BME280;27283;52.504;13.358;2023-02-01T01:07:59;100718.59;;;4.76;77.80
41596;BME280;27283;52.504;13.358;2023-02-01T01:10:32;100713.97;;;5.00;77.65
41596;BME280;27283;52.504;13.358;2023-02-01T01:13:05;100699.94;;;4.55;78.23
41596;BME280;27283;52.504;13.358;2023-02-01T01:15:37;100704.75;;;4.61;78.27
41596;BME280;27283;52.504;13.358;2023-02-01T01:18:13;100705.81;;;4.38;78.92
41596;BME280;27283;52.504;13.358;2023-02-01T01:20:47;100693.03;;;4.53;78.92
41596;BME280;27283;52.504;13.358;2023-02-01T01:23:20;100695.91;;;4.61;78.47
41596;BME280;27283;52.504;13.358;2023-02-01T01:25:52;100688.34;;;4.45;78.79
41596;BME280;27283;52.504;13.358;2023-02-01T01:28:25;100689.00;;;4.58;77.87
41596;BME280;27283;52.504;13.358;2023-02-01T01:30:57;100687.78;;;4.41;78.66
41596;BME280;27283;52.504;13.358;2023-02-01T01:33:33;100680.91;;;4.60;77.49
41596;BME280;27283;52.504;13.358;2023-02-01T01:36:05;100675.69;;;4.58;77.74
41596;BME280;27283;52.504;13.358;2023-02-01T01:38:41;100672.13;;;4.69;77.17
41596;BME280;27283;52.504;13.358;2023-02-01T01:41:14;100665.00;;;4.49;77.89
41596;BME280;27283;52.504;13.358;2023-02-01T01:43:55;100684.06;;;4.54;78.04
41596;BME280;27283;52.504;13.358;2023-02-01T01:46:29;100664.34;;;4.56;77.82
41596;BME280;27283;52.504;13.358;2023-02-01T01:49:10;100663.75;;;4.74;76.04
41596;BME280;27283;52.504;13.358;2023-02-01T01:51:46;100652.56;;;4.80;76.30
41596;BME280;27283;52.504;13.358;2023-02-01T01:54:25;100666.50;;;4.84;75.85
41596;BME280;27283;52.504;13.358;2023-02-01T01:57:01;100645.41;;;5.02;74.96
41596;BME280;27283;52.504;13.358;2023-02-01T01:59:38;100669.03;;;5.16;74.74
41596;BME280;27283;52.504;13.358;2023-02-01T02:02:11;100660.47;;;4.82;76.30
41596;BME280;27283;52.504;13.358;2023-02-01T02:04:46;100661.03;;;4.85;75.48
41596;BME280;27283;52.504;13.358;2023-02-01T02:07:22;100677.31;;;4.71;75.86
41596;BME280;27283;52.504;13.358;2023-02-01T02:09:57;100664.66;;;4.84;75.82
41596;BME280;27283;52.504;13.358;2023-02-01T02:12:29;100668.06;;;4.86;75.03
41596;BME280;27283;52.504;13.358;2023-02-01T02:15:02;100685.66;;;4.77;75.44
41596;BME280;27283;52.504;13.358;2023-02-01T02:17:38;100691.03;;;4.87;74.77
41596;BME280;27283;52.504;13.358;2023-02-01T02:20:31;100679.59;;;4.75;75.15
41596;BME280;27283;52.504;13.358;2023-02-01T02:26:57;100680.03;;;5.23;73.30
41596;BME280;27283;52.504;13.358;2023-02-01T02:30:07;100666.94;;;4.68;75.84
41596;BME280;27283;52.504;13.358;2023-02-01T02:33:15;100668.63;;;4.90;74.71
41596;BME280;27283;52.504;13.358;2023-02-01T02:35:57;100669.06;;;4.74;75.53
41596;BME280;27283;52.504;13.358;2023-02-01T02:38:40;100662.25;;;4.81;75.03
41596;BME280;27283;52.504;13.358;2023-02-01T02:41:16;100656.38;;;5.08;73.75
41596;BME280;27283;52.504;13.358;2023-02-01T02:44:10;100664.88;;;5.23;73.74
41596;BME280;27283;52.504;13.358;2023-02-01T02:47:02;100667.72;;;4.79;74.70
41596;BME280;27283;52.504;13.358;2023-02-01T02:49:56;100657.25;;;5.09;74.46
41596;BME280;27283;52.504;13.358;2023-02-01T02:52:47;100658.00;;;5.00;74.01
41596;BME280;27283;52.504;13.358;2023-02-01T02:55:37;100662.03;;;5.15;74.01
41596;BME280;27283;52.504;13.358;2023-02-01T02:58:11;100657.00;;;4.91;74.10
41596;BME280;27283;52.504;13.358;2023-02-01T03:01:06;100651.34;;;4.63;75.66
41596;BME280;27283;52.504;13.358;2023-02-01T03:04:17;100649.03;;;4.70;75.84
41596;BME280;27283;52.504;13.358;2023-02-01T03:10:37;100653.81;;;4.55;76.61
41596;BME280;27283;52.504;13.358;2023-02-01T03:13:13;100640.13;;;4.81;75.77
41596;BME280;27283;52.504;13.358;2023-02-01T03:15:53;100637.56;;;5.00;74.60
41596;BME280;27283;52.504;13.358;2023-02-01T03:18:36;100638.00;;;5.46;73.46
41596;BME280;27283;52.504;13.358;2023-02-01T03:21:16;100629.44;;;5.02;74.08
41596;BME280;27283;52.504;13.358;2023-02-01T03:23:53;100622.38;;;4.91;74.69
41596;BME280;27283;52.504;13.358;2023-02-01T03:26:29;100619.56;;;4.92;74.89
41596;BME280;27283;52.504;13.358;2023-02-01T03:29:07;100611.72;;;4.91;75.09
41596;BME280;27283;52.504;13.358;2023-02-01T03:31:40;100612.56;;;5.01;74.75
41596;BME280;27283;52.504;13.358;2023-02-01T03:34:13;100606.13;;;4.94;74.77
41596;BME280;27283;52.504;13.358;2023-02-01T03:36:49;100594.97;;;4.58;76.12
41596;BME280;27283;52.504;13.358;2023-02-01T03:39:29;100606.69;;;5.28;74.11
41596;BME280;27283;52.504;13.358;2023-02-01T03:42:05;100586.78;;;5.02;74.74
41596;BME280;27283;52.504;13.358;2023-02-01T03:44:47;100591.94;;;5.24;73.42
41596;BME280;27283;52.504;13.358;2023-02-01T03:47:23;100594.84;;;4.90;74.02
41596;BME280;27283;52.504;13.358;2023-02-01T03:50:00;100597.53;;;4.90;74.95
41596;BME280;27283;52.504;13.358;2023-02-01T03:52:38;100589.75;;;5.49;72.77
41596;BME280;27283;52.504;13.358;2023-02-01T03:55:20;100597.03;;;5.06;73.58
41596;BME280;27283;52.504;13.358;2023-02-01T03:57:59;100588.59;;;5.32;73.50
41596;BME280;27283;52.504;13.358;2023-02-01T04:00:51;100588.59;;;5.01;73.89
41596;BME280;27283;52.504;13.358;2023-02-01T04:03:24;100586.47;;;5.26;73.81
41596;BME280;27283;52.504;13.358;2023-02-01T04:05:57;100594.06;;;5.00;73.84
41596;BME280;27283;52.504;13.358;2023-02-01T04:08:29;100593.84;;;5.12;74.08
41596;BME280;27283;52.504;13.358;2023-02-01T04:11:05;100585.06;;;4.91;74.63
41596;BME280;27283;52.504;13.358;2023-02-01T04:13:37;100599.03;;;5.55;73.07
41596;BME280;27283;52.504;13.358;2023-02-01T04:16:10;100587.94;;;5.09;73.37
41596;BME280;27283;52.504;13.358;2023-02-01T04:18:42;100591.38;;;5.00;74.20
41596;BME280;27283;52.504;13.358;2023-02-01T04:21:15;100596.50;;;5.12;73.97
41596;BME280;27283;52.504;13.358;2023-02-01T04:23:47;100595.16;;;5.78;72.67
41596;BME280;27283;52.504;13.358;2023-02-01T04:29:43;100586.78;;;5.52;73.49
41596;BME280;27283;52.504;13.358;2023-02-01T04:32:16;100591.16;;;5.63;71.47
41596;BME280;27283;52.504;13.358;2023-02-01T04:34:49;100586.13;;;5.19;73.59
41596;BME280;27283;52.504;13.358;2023-02-01T04:37:22;100588.88;;;5.39;72.94
41596;BME280;27283;52.504;13.358;2023-02-01T04:39:54;100588.50;;;5.63;72.77
41596;BME280;27283;52.504;13.358;2023-02-01T04:42:29;100578.41;;;5.66;72.81
41596;BME280;27283;52.504;13.358;2023-02-01T04:45:02;100586.09;;;5.60;71.83
41596;BME280;27283;52.504;13.358;2023-02-01T04:47:34;100568.38;;;5.99;71.01
41596;BME280;27283;52.504;13.358;2023-02-01T04:50:07;100578.88;;;6.11;70.17
41596;BME280;27283;52.504;13.358;2023-02-01T04:52:41;100573.69;;;5.99;71.32
41596;BME280;27283;52.504;13.358;2023-02-01T04:55:14;100570.28;;;5.78;70.57
41596;BME280;27283;52.504;13.358;2023-02-01T04:57:49;100567.16;;;5.63;71.75
41596;BME280;27283;52.504;13.358;2023-02-01T05:00:21;100564.09;;;5.87;71.59
41596;BME280;27283;52.504;13.358;2023-02-01T05:03:00;100567.50;;;6.28;69.78
41596;BME280;27283;52.504;13.358;2023-02-01T05:05:32;100553.03;;;6.01;70.00
41596;BME280;27283;52.504;13.358;2023-02-01T05:08:04;100561.72;;;5.94;70.68
41596;BME280;27283;52.504;13.358;2023-02-01T05:10:36;100556.53;;;5.92;70.89
41596;BME280;27283;52.504;13.358;2023-02-01T05:13:12;100543.47;;;6.18;70.52
41596;BME280;27283;52.504;13.358;2023-02-01T05:15:56;100547.91;;;6.57;68.56
41596;BME280;27283;52.504;13.358;2023-02-01T05:18:28;100543.31;;;6.30;69.35
41596;BME280;27283;52.504;13.358;2023-02-01T05:21:02;100524.78;;;5.79;70.93
41596;BME280;27283;52.504;13.358;2023-02-01T05:23:34;100532.38;;;6.13;69.53
41596;BME280;27283;52.504;13.358;2023-02-01T05:26:27;100544.47;;;6.08;69.95
41596;BME280;27283;52.504;13.358;2023-02-01T05:29:05;100536.69;;;6.34;68.56
41596;BME280;27283;52.504;13.358;2023-02-01T05:31:37;100544.19;;;6.11;70.47
41596;BME280;27283;52.504;13.358;2023-02-01T05:34:10;100530.91;;;6.48;68.77
41596;BME280;27283;52.504;13.358;2023-02-01T05:36:43;100533.34;;;6.32;69.03
41596;BME280;27283;52.504;13.358;2023-02-01T05:39:15;100534.44;;;6.39;68.04
41596;BME280;27283;52.504;13.358;2023-02-01T05:41:47;100542.22;;;6.23;69.64
41596;BME280;27283;52.504;13.358;2023-02-01T05:44:22;100528.69;;;5.46;71.33
41596;BME280;27283;52.504;13.358;2023-02-01T05:46:54;100527.16;;;5.82;70.84
41596;BME280;27283;52.504;13.358;2023-02-01T05:49:26;100529.69;;;5.94;70.54
41596;BME280;27283;52.504;13.358;2023-02-01T05:52:24;100519.44;;;6.18;70.74
41596;BME280;27283;52.504;13.358;2023-02-01T05:54:56;100515.53;;;6.03;70.35
41596;BME280;27283;52.504;13.358;2023-02-01T05:57:28;100526.03;;;5.95;70.78
41596;BME280;27283;52.504;13.358;2023-02-01T06:00:05;100515.25;;;6.06;69.55
41596;BME280;27283;52.504;13.358;2023-02-01T06:02:53;100504.13;;;6.11;70.68
41596;BME280;27283;52.504;13.358;2023-02-01T06:05:48;100511.72;;;6.15;69.89
41596;BME280;27283;52.504;13.358;2023-02-01T06:08:41;100515.38;;;5.85;71.13
41596;BME280;27283;52.504;13.358;2023-02-01T06:11:13;100511.09;;;6.41;69.79
41596;BME280;27283;52.504;13.358;2023-02-01T06:14:00;100519.81;;;6.81;68.99
41596;BME280;27283;52.504;13.358;2023-02-01T06:16:34;100513.53;;;6.34;70.37
41596;BME280;27283;52.504;13.358;2023-02-01T06:19:07;100520.66;;;6.44;71.25
41596;BME280;27283;52.504;13.358;2023-02-01T06:21:39;100514.44;;;6.53;71.40
41596;BME280;27283;52.504;13.358;2023-02-01T06:24:11;100511.03;;;6.13;72.17
41596;BME280;27283;52.504;13.358;2023-02-01T06:26:43;100498.25;;;5.68;73.85
41596;BME280;27283;52.504;13.358;2023-02-01T06:29:15;100504.69;;;5.65;75.29
41596;BME280;27283;52.504;13.358;2023-02-01T06:31:50;100508.06;;;5.67;74.67
41596;BME280;27283;52.504;13.358;2023-02-01T06:34:22;100505.41;;;5.77;74.76
41596;BME280;27283;52.504;13.358;2023-02-01T06:36:54;100494.84;;;5.85;74.89
41596;BME280;27283;52.504;13.358;2023-02-01T06:39:27;100494.31;;;6.01;73.11
41596;BME280;27283;52.504;13.358;2023-02-01T06:41:59;100492.75;;;5.60;74.32
41596;BME280;27283;52.504;13.358;2023-02-01T06:44:31;100502.31;;;5.82;74.54
41596;BME280;27283;52.504;13.358;2023-02-01T06:47:06;100488.13;;;5.91;73.86
41596;BME280;27283;52.504;13.358;2023-02-01T06:49:38;100496.66;;;5.95;73.11
41596;BME280;27283;52.504;13.358;2023-02-01T06:52:11;100476.47;;;6.12;73.50
41596;BME280;27283;52.504;13.358;2023-02-01T06:54:43;100479.13;;;6.59;71.88
41596;BME280;27283;52.504;13.358;2023-02-01T06:57:15;100475.63;;;6.01;71.66
41596;BME280;27283;52.504;13.358;2023-02-01T06:59:47;100476.63;;;5.71;73.29
41596;BME280;27283;52.504;13.358;2023-02-01T07:02:22;100454.84;;;5.66;73.36
41596;BME280;27283;52.504;13.358;2023-02-01T07:04:55;100465.25;;;5.79;72.62
41596;BME280;27283;52.504;13.358;2023-02-01T07:07:27;100461.88;;;5.86;72.89
41596;BME280;27283;52.504;13.358;2023-02-01T07:09:59;100475.84;;;6.28;70.21
41596;BME280;27283;52.504;13.358;2023-02-01T07:12:31;100466.34;;;5.96;71.17
41596;BME280;27283;52.504;13.358;2023-02-01T07:16:19;100460.56;;;6.20;71.54
41596;BME280;27283;52.504;13.358;2023-02-01T07:18:55;100469.63;;;6.37;70.03
41596;BME280;27283;52.504;13.358;2023-02-01T07:21:28;100468.44;;;6.21;70.93
41596;BME280;27283;52.504;13.358;2023-02-01T07:24:01;100453.59;;;5.70;72.13
41596;BME280;27283;52.504;13.358;2023-02-01T07:26:33;100449.09;;;5.80;73.30
41596;BME280;27283;52.504;13.358;2023-02-01T07:29:06;100446.53;;;5.89;74.34
41596;BME280;27283;52.504;13.358;2023-02-01T07:31:38;100435.19;;;5.96;72.86
41596;BME280;27283;52.504;13.358;2023-02-01T07:34:14;100437.44;;;5.81;73.99
41596;BME280;27283;52.504;13.358;2023-02-01T07:36:46;100435.75;;;5.80;73.71
41596;BME280;27283;52.504;13.358;2023-02-01T07:39:19;100434.88;;;6.19;72.91
41596;BME280;27283;52.504;13.358;2023-02-01T07:41:51;100439.41;;;6.46;72.70
41596;BME280;27283;52.504;13.358;2023-02-01T07:44:26;100444.44;;;6.12;74.56
41596;BME280;27283;52.504;13.358;2023-02-01T07:46:58;100445.56;;;6.19;75.15
41596;BME280;27283;52.504;13.358;2023-02-01T07:49:34;100443.19;;;6.06;76.36
41596;BME280;27283;52.504;13.358;2023-02-01T07:52:06;100442.63;;;5.14;79.16
41596;BME280;27283;52.504;13.358;2023-02-01T07:54:41;100437.69;;;5.10;81.33
41596;BME280;27283;52.504;13.358;2023-02-01T07:57:13;100435.78;;;5.31;80.33
41596;BME280;27283;52.504;13.358;2023-02-01T07:59:46;100440.56;;;5.57;80.29
41596;BME280;27283;52.504;13.358;2023-02-01T08:02:31;100439.94;;;5.14;81.74
41596;BME280;27283;52.504;13.358;2023-02-01T08:05:08;100436.44;;;5.24;83.24
41596;BME280;27283;52.504;13.358;2023-02-01T08:07:40;100435.97;;;4.79;84.35
41596;BME280;27283;52.504;13.358;2023-02-01T08:10:14;100434.63;;;5.34;82.86
41596;BME280;27283;52.504;13.358;2023-02-01T08:12:47;100439.56;;;5.39;82.74
41596;BME280;27283;52.504;13.358;2023-02-01T08:15:21;100435.44;;;4.95;84.31
41596;BME280;27283;52.504;13.358;2023-02-01T08:17:54;100433.28;;;4.79;84.51
41596;BME280;27283;52.504;13.358;2023-02-01T08:20:31;100443.66;;;4.42;86.27
41596;BME280;27283;52.504;13.358;2023-02-01T08:23:07;100444.16;;;4.57;86.08
41596;BME280;27283;52.504;13.358;2023-02-01T08:25:41;100435.00;;;4.50;87.07
41596;BME280;27283;52.504;13.358;2023-02-01T08:28:14;100438.19;;;4.34;88.19
41596;BME280;27283;52.504;13.358;2023-02-01T08:30:47;100433.38;;;4.58;86.90
41596;BME280;27283;52.504;13.358;2023-02-01T08:33:20;100438.69;;;4.49;87.64
41596;BME280;27283;52.504;13.358;2023-02-01T08:35:55;100441.16;;;4.81;86.28
41596;BME280;27283;52.504;13.358;2023-02-01T08:38:41;100447.72;;;4.77;87.46
41596;BME280;27283;52.504;13.358;2023-02-01T08:41:15;100445.59;;;4.61;88.04
41596;BME280;27283;52.504;13.358;2023-02-01T08:43:48;100443.22;;;4.68;89.07
41596;BME280;27283;52.504;13.358;2023-02-01T08:46:21;100446.38;;;5.02;87.75
41596;BME280;27283;52.504;13.358;2023-02-01T08:48:53;100453.44;;;5.52;86.45
41596;BME280;27283;52.504;13.358;2023-02-01T08:51:29;100446.56;;;5.69;83.95
41596;BME280;27283;52.504;13.358;2023-02-01T08:54:03;100443.81;;;4.40;88.65
41596;BME280;27283;52.504;13.358;2023-02-01T08:56:42;100462.22;;;4.01;90.96
41596;BME280;27283;52.504;13.358;2023-02-01T08:59:14;100460.44;;;4.02;91.60
41596;BME280;27283;52.504;13.358;2023-02-01T09:01:51;100463.06;;;4.23;89.91
41596;BME280;27283;52.504;13.358;2023-02-01T09:04:26;100460.44;;;4.02;91.11
41596;BME280;27283;52.504;13.358;2023-02-01T09:07:02;100458.44;;;3.94;91.12
41596;BME280;27283;52.504;13.358;2023-02-01T09:09:34;100472.72;;;4.24;90.59
41596;BME280;27283;52.504;13.358;2023-02-01T09:12:07;100464.16;;;4.20;90.03
41596;BME280;27283;52.504;13.358;2023-02-01T09:14:39;100472.53;;;4.37;89.98
41596;BME280;27283;52.504;13.358;2023-02-01T09:17:16;100485.28;;;4.74;88.54
41596;BME280;27283;52.504;13.358;2023-02-01T09:19:49;100480.00;;;4.84;88.98
41596;BME280;27283;52.504;13.358;2023-02-01T09:22:24;100489.56;;;4.86;88.31
41596;BME280;27283;52.504;13.358;2023-02-01T09:24:56;100489.34;;;5.09;85.80
41596;BME280;27283;52.504;13.358;2023-02-01T09:27:29;100493.72;;;4.79;86.43
41596;BME280;27283;52.504;13.358;2023-02-01T09:30:02;100501.25;;;4.74;87.58
41596;BME280;27283;52.504;13.358;2023-02-01T09:32:35;100500.88;;;5.29;85.63
41596;BME280;27283;52.504;13.358;2023-02-01T09:35:08;100508.34;;;4.85;86.63
41596;BME280;27283;52.504;13.358;2023-02-01T09:37:44;100503.63;;;4.67;87.42
41596;BME280;27283;52.504;13.358;2023-02-01T09:40:17;100493.19;;;4.54;87.82
41596;BME280;27283;52.504;13.358;2023-02-01T09:43:13;100514.34;;;5.37;85.34
41596;BME280;27283;52.504;13.358;2023-02-01T09:45:54;100516.13;;;4.76;86.43
41596;BME280;27283;52.504;13.358;2023-02-01T09:48:33;100522.75;;;4.30;88.20
41596;BME280;27283;52.504;13.358;2023-02-01T09:51:14;100516.47;;;4.31;88.25
41596;BME280;27283;52.504;13.358;2023-02-01T09:53:58;100529.78;;;4.83;86.01
41596;BME280;27283;52.504;13.358;2023-02-01T09:56:36;100533.66;;;5.10;84.88
41596;BME280;27283;52.504;13.358;2023-02-01T09:59:23;100534.00;;;4.34;87.86
41596;BME280;27283;52.504;13.358;2023-02-01T10:01:58;100528.97;;;4.61;87.30
41596;BME280;27283;52.504;13.358;2023-02-01T10:04:31;100522.41;;;4.66;87.49
41596;BME280;27283;52.504;13.358;2023-02-01T10:07:17;100536.66;;;4.86;85.93
41596;BME280;27283;52.504;13.358;2023-02-01T10:10:02;100531.78;;;4.18;88.28
41596;BME280;27283;52.504;13.358;2023-02-01T10:12:58;100526.41;;;4.50;87.83
41596;BME280;27283;52.504;13.358;2023-02-01T10:15:46;100533.25;;;4.53;88.64
41596;BME280;27283;52.504;13.358;2023-02-01T10:18:31;100540.03;;;4.88;86.86
41596;BME280;27283;52.504;13.358;2023-02-01T10:21:15;100537.78;;;4.31;89.37
41596;BME280;27283;52.504;13.358;2023-02-01T10:24:04;100531.25;;;4.45;88.52
41596;BME280;27283;52.504;13.358;2023-02-01T10:26:53;100538.59;;;4.53;88.45
41596;BME280;27283;52.504;13.358;2023-02-01T10:29:32;100520.44;;;4.37;88.77
41596;BME280;27283;52.504;13.358;2023-02-01T10:32:15;100537.69;;;4.64;87.16
41596;BME280;27283;52.504;13.358;2023-02-01T10:34:53;100545.53;;;4.65;87.48
41596;BME280;27283;52.504;13.358;2023-02-01T10:37:31;100533.03;;;4.96;86.29
41596;BME280;27283;52.504;13.358;2023-02-01T10:40:15;100532.63;;;5.01;86.05
41596;BME280;27283;52.504;13.358;2023-02-01T10:42:57;100537.94;;;5.32;84.65
41596;BME280;27283;52.504;13.358;2023-02-01T10:45:33;100554.66;;;5.44;84.92
41596;BME280;27283;52.504;13.358;2023-02-01T10:48:08;100552.63;;;4.55;88.52
41596;BME280;27283;52.504;13.358;2023-02-01T10:50:46;100536.16;;;3.98;89.50
41596;BME280;27283;52.504;13.358;2023-02-01T10:53:25;100544.69;;;4.65;88.53
41596;BME280;27283;52.504;13.358;2023-02-01T10:56:06;100537.38;;;4.88;87.60
41596;BME280;27283;52.504;13.358;2023-02-01T10:58:46;100551.47;;;4.78;87.42
41596;BME280;27283;52.504;13.358;2023-02-01T11:01:23;100536.53;;;4.56;88.72
41596;BME280;27283;52.504;13.358;2023-02-01T11:04:01;100538.41;;;5.06;87.14
41596;BME280;27283;52.504;13.358;2023-02-01T11:06:39;100534.56;;;4.89;87.68
41596;BME280;27283;52.504;13.358;2023-02-01T11:09:19;100530.28;;;5.08;87.88
41596;BME280;27283;52.504;13.358;2023-02-01T11:11:58;100533.41;;;5.23;86.92
41596;BME280;27283;52.504;13.358;2023-02-01T11:14:39;100523.94;;;4.99;87.81
41596;BME280;27283;52.504;13.358;2023-02-01T11:17:27;100527.09;;;5.24;87.24
41596;BME280;27283;52.504;13.358;2023-02-01T11:20:04;100519.31;;;5.71;85.11
41596;BME280;27283;52.504;13.358;2023-02-01T11:22:47;100521.94;;;5.32;86.19
41596;BME280;27283;52.504;13.358;2023-02-01T11:25:21;100518.72;;;5.28;86.32
41596;BME280;27283;52.504;13.358;2023-02-01T11:27:56;100512.13;;;5.72;85.22
41596;BME280;27283;52.504;13.358;2023-02-01T11:30:38;100513.97;;;5.91;84.58
41596;BME280;27283;52.504;13.358;2023-02-01T11:33:15;100509.44;;;6.30;83.66
41596;BME280;27283;52.504;13.358;2023-02-01T11:35:49;100499.06;;;6.27;82.41
41596;BME280;27283;52.504;13.358;2023-02-01T11:38:28;100497.66;;;6.23;83.05
41596;BME280;27283;52.504;13.358;2023-02-01T11:41:22;100493.59;;;6.19;81.34
41596;BME280;27283;52.504;13.358;2023-02-01T11:43:57;100482.94;;;6.19;81.56
41596;BME280;27283;52.504;13.358;2023-02-01T11:46:34;100473.59;;;6.33;80.99
41596;BME280;27283;52.504;13.358;2023-02-01T11:49:20;100484.00;;;6.73;80.05
41596;BME280;27283;52.504;13.358;2023-02-01T11:52:10;100466.88;;;6.94;79.61
41596;BME280;27283;52.504;13.358;2023-02-01T11:54:59;100471.66;;;7.36;78.90
41596;BME280;27283;52.504;13.358;2023-02-01T11:57:46;100462.97;;;6.88;76.80
41596;BME280;27283;52.504;13.358;2023-02-01T12:00:36;100462.22;;;6.96;78.89
41596;BME280;27283;52.504;13.358;2023-02-01T12:03:48;100463.25;;;6.57;78.17
41596;BME280;27283;52.504;13.358;2023-02-01T12:06:32;100473.56;;;6.80;79.76
41596;BME280;27283;52.504;13.358;2023-02-01T12:09:15;100455.22;;;6.57;78.03
41596;BME280;27283;52.504;13.358;2023-02-01T12:12:00;100454.41;;;7.49;76.62
41596;BME280;27283;52.504;13.358;2023-02-01T12:14:48;100449.91;;;7.31;74.37
41596;BME280;27283;52.504;13.358;2023-02-01T12:17:55;100450.47;;;6.79;75.66
41596;BME280;27283;52.504;13.358;2023-02-01T12:20:58;100445.22;;;6.60;76.76
41596;BME280;27283;52.504;13.358;2023-02-01T12:23:51;100440.22;;;6.19;78.14
41596;BME280;27283;52.504;13.358;2023-02-01T12:26:46;100422.00;;;7.16;75.91
41596;BME280;27283;52.504;13.358;2023-02-01T12:29:42;100433.44;;;7.08;75.36
41596;BME280;27283;52.504;13.358;2023-02-01T12:32:28;100426.50;;;6.42;76.23
41596;BME280;27283;52.504;13.358;2023-02-01T12:35:27;100410.13;;;7.00;76.21
41596;BME280;27283;52.504;13.358;2023-02-01T12:38:20;100409.78;;;7.31;74.14
41596;BME280;27283;52.504;13.358;2023-02-01T12:41:10;100411.25;;;6.14;76.40
41596;BME280;27283;52.504;13.358;2023-02-01T12:43:49;100408.44;;;6.16;76.85
41596;BME280;27283;52.504;13.358;2023-02-01T12:46:29;100403.13;;;6.71;76.17
41596;BME280;27283;52.504;13.358;2023-02-01T12:49:10;100383.78;;;6.87;74.97
41596;BME280;27283;52.504;13.358;2023-02-01T12:51:46;100387.63;;;7.21;73.54
41596;BME280;27283;52.504;13.358;2023-02-01T12:54:31;100381.47;;;6.92;73.46
41596;BME280;27283;52.504;13.358;2023-02-01T12:57:12;100368.91;;;7.21;73.15
41596;BME280;27283;52.504;13.358;2023-02-01T13:00:01;100379.69;;;7.11;73.00
41596;BME280;27283;52.504;13.358;2023-02-01T13:02:39;100371.19;;;7.34;72.08
41596;BME280;27283;52.504;13.358;2023-02-01T13:05:17;100371.03;;;6.99;73.59
41596;BME280;27283;52.504;13.358;2023-02-01T13:07:59;100379.75;;;7.19;72.68
41596;BME280;27283;52.504;13.358;2023-02-01T13:10:38;100396.31;;;7.23;70.68
41596;BME280;27283;52.504;13.358;2023-02-01T13:13:18;100387.81;;;6.73;71.99
41596;BME280;27283;52.504;13.358;2023-02-01T13:15:58;100388.38;;;6.95;72.47
41596;BME280;27283;52.504;13.358;2023-02-01T13:18:35;100382.16;;;6.49;72.72
41596;BME280;27283;52.504;13.358;2023-02-01T13:21:14;100404.69;;;6.74;72.49
41596;BME280;27283;52.504;13.358;2023-02-01T13:23:49;100411.41;;;6.50;73.64
41596;BME280;27283;52.504;13.358;2023-02-01T13:26:33;100409.28;;;6.82;72.64
41596;BME280;27283;52.504;13.358;2023-02-01T13:29:09;100400.78;;;6.31;72.85
41596;BME280;27283;52.504;13.358;2023-02-01T13:31:57;100399.09;;;6.67;72.31
41596;BME280;27283;52.504;13.358;2023-02-01T13:37:53;100385.63;;;6.59;71.87
41596;BME280;27283;52.504;13.358;2023-02-01T13:40:36;100383.06;;;6.67;72.57
41596;BME280;27283;52.504;13.358;2023-02-01T13:43:17;100382.25;;;6.85;71.40
41596;BME280;27283;52.504;13.358;2023-02-01T13:45:54;100369.09;;;6.73;71.40
41596;BME280;27283;52.504;13.358;2023-02-01T13:48:33;100363.84;;;7.80;68.44
41596;BME280;27283;52.504;13.358;2023-02-01T13:51:08;100355.91;;;7.26;69.67
41596;BME280;27283;52.504;13.358;2023-02-01T13:53:45;100356.59;;;6.92;70.82
41596;BME280;27283;52.504;13.358;2023-02-01T13:56:19;100356.97;;;7.33;69.84
41596;BME280;27283;52.504;13.358;2023-02-01T13:58:56;100355.00;;;7.35;69.71
41596;BME280;27283;52.504;13.358;2023-02-01T14:01:49;100349.38;;;7.47;68.93